createdAt,value
2016-12-19T00:01:03.413Z,19.22
2016-12-19T00:02:13.407Z,19.3
2016-12-19T00:03:23.029Z,19.26
2016-12-19T00:04:32.976Z,19.24
2016-12-19T00:05:42.609Z,19.26
2016-12-19T00:06:52.847Z,19.29
2016-12-19T00:08:02.784Z,19.29
2016-12-19T00:09:12.715Z,19.24
2016-12-19T00:10:22.960Z,19.24
2016-12-19T00:11:32.312Z,19.24
2016-12-19T00:12:42.241Z,19.29
2016-12-19T00:13:52.201Z,19.32
2016-12-19T00:15:01.823Z,19.3
2016-12-19T00:16:11.447Z,19.26
2016-12-19T00:17:21.072Z,19.23
2016-12-19T00:18:31.325Z,19.2
2016-12-19T00:19:41.573Z,19.24
2016-12-19T00:20:51.202Z,19.24
2016-12-19T00:22:01.439Z,19.27
2016-12-19T00:23:11.365Z,19.24
2016-12-19T00:24:21.303Z,19.32
2016-12-19T00:25:31.550Z,19.26
2016-12-19T00:26:41.794Z,19.24
2016-12-19T00:27:51.451Z,19.23
2016-12-19T00:29:01.065Z,19.24
2016-12-19T00:30:10.691Z,19.24
2016-12-19T00:31:20.631Z,19.29
2016-12-19T00:32:30.578Z,19.22
2016-12-19T00:33:40.522Z,19.29
2016-12-19T00:34:50.450Z,19.3
2016-12-19T00:36:00.391Z,19.24
2016-12-19T00:37:10.642Z,19.26
2016-12-19T00:38:20.564Z,19.24
2016-12-19T00:39:30.186Z,19.2
2016-12-19T00:40:40.224Z,19.27
2016-12-19T00:41:50.152Z,19.27
2016-12-19T00:43:00.076Z,19.27
2016-12-19T00:44:10.021Z,19.27
2016-12-19T00:45:20.261Z,19.23
2016-12-19T00:46:29.933Z,19.24
2016-12-19T00:47:40.180Z,19.27
2016-12-19T00:48:50.465Z,19.27
2016-12-19T00:49:59.769Z,19.2
2016-12-19T00:51:08.794Z,19.19
2016-12-19T00:52:18.114Z,19.24
2016-12-19T00:53:28.046Z,19.29
2016-12-19T00:54:37.676Z,19.26
2016-12-19T00:55:47.602Z,19.26
2016-12-19T00:56:57.854Z,19.2
2016-12-19T00:58:08.101Z,19.24
2016-12-19T00:59:18.346Z,19.24
2016-12-19T01:00:28.008Z,19.22
2016-12-19T01:01:37.341Z,19.23
2016-12-19T01:02:47.284Z,19.29
2016-12-19T01:03:57.210Z,19.23
2016-12-19T01:05:06.846Z,19.23
2016-12-19T01:06:17.077Z,19.27
2016-12-19T01:07:27.016Z,19.27
2016-12-19T01:08:36.997Z,19.29
2016-12-19T01:09:46.623Z,19.23
2016-12-19T01:10:56.565Z,19.23
2016-12-19T01:12:06.523Z,19.27
2016-12-19T01:13:16.155Z,19.27
2016-12-19T01:14:25.780Z,19.19
2016-12-19T01:15:35.397Z,19.26
2016-12-19T01:16:45.012Z,19.27
2016-12-19T01:17:54.937Z,19.27
2016-12-19T01:19:04.888Z,19.27
2016-12-19T01:20:15.124Z,19.19
2016-12-19T01:21:25.063Z,19.2
2016-12-19T01:22:35.013Z,19.2
2016-12-19T01:23:44.958Z,19.26
2016-12-19T01:24:54.587Z,19.29
2016-12-19T01:26:04.836Z,19.27
2016-12-19T01:27:14.481Z,19.26
2016-12-19T01:28:24.417Z,19.24
2016-12-19T01:29:34.071Z,19.24
2016-12-19T01:30:44.324Z,19.3
2016-12-19T01:31:54.575Z,19.24
2016-12-19T01:33:04.561Z,19.19
2016-12-19T01:34:14.807Z,19.24
2016-12-19T01:35:24.740Z,19.27
2016-12-19T01:36:34.976Z,19.3
2016-12-19T01:37:45.213Z,19.27
2016-12-19T01:38:55.464Z,19.26
2016-12-19T01:40:05.419Z,19.22
2016-12-19T01:41:15.604Z,19.2
2016-12-19T01:42:25.539Z,19.23
2016-12-19T01:43:35.157Z,19.27
2016-12-19T01:44:45.408Z,19.29
2016-12-19T01:45:55.646Z,19.24
2016-12-19T01:47:05.570Z,19.24
2016-12-19T01:48:15.902Z,19.22
2016-12-19T01:49:26.158Z,19.26
2016-12-19T01:50:36.391Z,19.22
2016-12-19T01:51:46.321Z,19.24
2016-12-19T01:52:56.262Z,19.26
2016-12-19T01:54:05.574Z,19.26
2016-12-19T01:55:14.579Z,19.29
2016-12-19T01:56:23.591Z,19.24
2016-12-19T01:57:33.220Z,19.23
2016-12-19T01:58:43.463Z,19.23
2016-12-19T01:59:53.095Z,19.17
2016-12-19T02:01:02.727Z,19.27
2016-12-19T02:02:12.973Z,19.24
2016-12-19T02:03:22.588Z,19.23
2016-12-19T02:04:32.205Z,19.29
2016-12-19T02:05:41.834Z,19.27
2016-12-19T02:06:51.457Z,19.27
2016-12-19T02:08:01.075Z,19.19
2016-12-19T02:09:11.015Z,19.26
2016-12-19T02:10:20.654Z,19.23
2016-12-19T02:11:30.586Z,19.19
2016-12-19T02:12:40.525Z,19.24
2016-12-19T02:13:49.858Z,19.27
2016-12-19T02:14:59.488Z,19.27
2016-12-19T02:16:09.418Z,19.22
2016-12-19T02:17:19.047Z,19.24
2016-12-19T02:18:28.351Z,19.22
2016-12-19T02:19:38.614Z,19.22
2016-12-19T02:20:48.266Z,19.24
2016-12-19T02:21:58.201Z,19.23
2016-12-19T02:23:08.160Z,19.3
2016-12-19T02:24:18.399Z,19.22
2016-12-19T02:25:28.631Z,19.19
2016-12-19T02:26:38.908Z,19.26
2016-12-19T02:27:48.840Z,19.27
2016-12-19T02:28:58.772Z,19.24
2016-12-19T02:30:08.134Z,19.19
2016-12-19T02:31:18.384Z,19.22
2016-12-19T02:32:28.632Z,19.24
2016-12-19T02:33:38.573Z,19.26
2016-12-19T02:34:48.500Z,19.22
2016-12-19T02:35:58.753Z,19.24
2016-12-19T02:37:08.380Z,19.29
2016-12-19T02:38:18.653Z,19.23
2016-12-19T02:39:28.269Z,19.27
2016-12-19T02:40:38.252Z,19.27
2016-12-19T02:41:48.181Z,19.26
2016-12-19T02:42:58.138Z,19.24
2016-12-19T02:44:08.380Z,19.24
2016-12-19T02:45:18.310Z,19.26
2016-12-19T02:46:28.264Z,19.19
2016-12-19T02:47:37.578Z,19.29
2016-12-19T02:48:47.203Z,19.19
2016-12-19T02:49:57.161Z,19.26
2016-12-19T02:51:07.098Z,19.15
2016-12-19T02:52:16.716Z,19.17
2016-12-19T02:53:26.666Z,19.26
2016-12-19T02:54:36.904Z,19.22
2016-12-19T02:55:46.526Z,19.23
2016-12-19T02:56:56.767Z,19.17
2016-12-19T02:58:07.018Z,19.17
2016-12-19T02:59:16.647Z,19.27
2016-12-19T03:00:26.582Z,19.23
2016-12-19T03:01:36.202Z,19.24
2016-12-19T03:02:45.835Z,19.27
2016-12-19T03:03:55.777Z,19.22
2016-12-19T03:05:06.026Z,19.26
2016-12-19T03:06:15.950Z,19.22
2016-12-19T03:07:25.889Z,19.16
2016-12-19T03:08:35.840Z,19.23
2016-12-19T03:09:45.796Z,19.27
2016-12-19T03:10:54.803Z,19.19
2016-12-19T03:12:05.060Z,19.24
2016-12-19T03:13:14.999Z,19.26
2016-12-19T03:14:24.628Z,19.22
2016-12-19T03:15:34.245Z,19.29
2016-12-19T03:16:44.170Z,19.15
2016-12-19T03:17:54.326Z,19.17
2016-12-19T03:19:04.560Z,19.27
2016-12-19T03:20:14.528Z,19.26
2016-12-19T03:21:24.470Z,19.24
2016-12-19T03:22:34.412Z,19.27
2016-12-19T03:23:44.348Z,19.27
2016-12-19T03:24:54.287Z,19.2
2016-12-19T03:26:03.915Z,19.22
2016-12-19T03:27:13.847Z,19.17
2016-12-19T03:28:23.773Z,19.2
2016-12-19T03:29:33.747Z,19.27
2016-12-19T03:30:43.677Z,19.24
2016-12-19T03:31:53.612Z,19.24
2016-12-19T03:33:03.229Z,19.22
2016-12-19T03:34:12.866Z,19.22
2016-12-19T03:35:22.797Z,19.17
2016-12-19T03:36:33.036Z,19.27
2016-12-19T03:37:42.965Z,19.23
2016-12-19T03:38:52.594Z,19.17
2016-12-19T03:40:02.238Z,19.22
2016-12-19T03:41:12.188Z,19.24
2016-12-19T03:42:22.444Z,19.23
2016-12-19T03:43:32.393Z,19.2
2016-12-19T03:44:42.787Z,19.23
2016-12-19T03:45:53.033Z,19.16
2016-12-19T03:47:03.004Z,19.17
2016-12-19T03:48:12.646Z,19.17
2016-12-19T03:49:22.586Z,19.24
2016-12-19T03:50:32.205Z,19.22
2016-12-19T03:51:41.829Z,19.22
2016-12-19T03:52:50.837Z,19.26
2016-12-19T03:54:00.771Z,19.2
2016-12-19T03:55:10.412Z,19.19
2016-12-19T03:56:20.361Z,19.17
2016-12-19T03:57:30.812Z,19.17
2016-12-19T03:58:40.448Z,19.23
2016-12-19T03:59:50.390Z,19.2
2016-12-19T04:01:00.013Z,19.19
2016-12-19T04:02:09.964Z,19.23
2016-12-19T04:03:19.909Z,19.26
2016-12-19T04:04:29.852Z,19.22
2016-12-19T04:05:39.860Z,19.16
2016-12-19T04:06:49.177Z,19.22
2016-12-19T04:07:59.459Z,19.2
2016-12-19T04:09:09.403Z,19.27
2016-12-19T04:10:19.644Z,19.17
2016-12-19T04:11:29.258Z,19.23
2016-12-19T04:12:38.877Z,19.22
2016-12-19T04:13:48.821Z,19.27
2016-12-19T04:14:58.736Z,19.2
2016-12-19T04:16:08.358Z,19.26
2016-12-19T04:17:18.594Z,19.23
2016-12-19T04:18:28.594Z,19.26
2016-12-19T04:19:38.845Z,19.17
2016-12-19T04:20:48.476Z,19.22
2016-12-19T04:21:58.433Z,19.22
2016-12-19T04:23:08.073Z,19.2
2016-12-19T04:24:18.004Z,19.17
2016-12-19T04:25:28.249Z,19.2
2016-12-19T04:26:38.172Z,19.22
2016-12-19T04:27:48.125Z,19.27
2016-12-19T04:28:58.388Z,19.19
2016-12-19T04:30:08.018Z,19.17
2016-12-19T04:31:17.946Z,19.23
2016-12-19T04:32:28.195Z,19.22
2016-12-19T04:33:38.137Z,19.19
2016-12-19T04:34:47.763Z,19.17
2016-12-19T04:35:57.401Z,19.19
2016-12-19T04:37:07.328Z,19.17
2016-12-19T04:38:16.649Z,19.27
2016-12-19T04:39:26.573Z,19.26
2016-12-19T04:40:36.819Z,19.22
2016-12-19T04:41:46.749Z,19.23
2016-12-19T04:42:56.681Z,19.23
2016-12-19T04:44:06.006Z,19.23
2016-12-19T04:45:16.253Z,19.24
2016-12-19T04:46:25.878Z,19.16
2016-12-19T04:47:35.811Z,19.16
2016-12-19T04:48:45.736Z,19.24
2016-12-19T04:49:55.652Z,19.16
2016-12-19T04:51:05.910Z,19.24
2016-12-19T04:52:16.707Z,19.24
2016-12-19T04:53:26.688Z,19.26
2016-12-19T04:54:36.975Z,19.2
2016-12-19T04:55:46.910Z,19.27
2016-12-19T04:56:57.145Z,19.22
2016-12-19T04:58:06.790Z,19.19
2016-12-19T04:59:15.798Z,19.19
2016-12-19T05:00:26.038Z,19.19
2016-12-19T05:01:36.293Z,19.19
2016-12-19T05:02:46.525Z,19.17
2016-12-19T05:03:56.165Z,19.22
2016-12-19T05:05:05.795Z,19.11
2016-12-19T05:06:15.120Z,19.22
2016-12-19T05:07:24.783Z,19.2
2016-12-19T05:08:34.418Z,19.2
2016-12-19T05:09:44.033Z,19.17
2016-12-19T05:10:54.272Z,19.2
2016-12-19T05:12:04.200Z,19.15
2016-12-19T05:13:14.137Z,19.2
2016-12-19T05:14:24.089Z,19.16
2016-12-19T05:15:33.403Z,19.16
2016-12-19T05:16:43.341Z,19.2
2016-12-19T05:17:53.267Z,19.2
2016-12-19T05:19:03.203Z,19.17
2016-12-19T05:20:13.335Z,19.19
2016-12-19T05:21:23.283Z,19.16
2016-12-19T05:22:32.914Z,19.2
2016-12-19T05:23:42.218Z,19.19
2016-12-19T05:24:52.147Z,19.15
2016-12-19T05:26:01.785Z,19.19
2016-12-19T05:27:12.019Z,19.19
2016-12-19T05:28:21.983Z,19.17
2016-12-19T05:29:32.233Z,19.22
2016-12-19T05:30:42.167Z,19.22
2016-12-19T05:31:51.791Z,19.17
2016-12-19T05:33:01.725Z,19.17
2016-12-19T05:34:12.669Z,19.19
2016-12-19T05:35:22.304Z,19.17
2016-12-19T05:36:32.240Z,19.22
2016-12-19T05:37:41.564Z,19.16
2016-12-19T05:38:51.805Z,19.12
2016-12-19T05:40:01.145Z,19.17
2016-12-19T05:41:10.765Z,19.19
2016-12-19T05:42:20.707Z,19.15
2016-12-19T05:43:30.765Z,19.17
2016-12-19T05:44:40.719Z,19.19
2016-12-19T05:45:50.656Z,19.22
2016-12-19T05:47:00.586Z,19.15
2016-12-19T05:48:10.837Z,19.16
2016-12-19T05:49:20.837Z,19.15
2016-12-19T05:50:30.563Z,19.23
2016-12-19T05:51:40.502Z,19.24
2016-12-19T05:52:49.815Z,19.17
2016-12-19T05:53:59.445Z,19.17
2016-12-19T05:55:09.087Z,19.17
2016-12-19T05:56:18.389Z,19.2
2016-12-19T05:57:28.937Z,19.16
2016-12-19T05:58:38.874Z,19.22
2016-12-19T05:59:48.820Z,19.19
2016-12-19T06:00:59.076Z,19.17
2016-12-19T06:02:08.994Z,19.17
2016-12-19T06:03:18.923Z,19.17
2016-12-19T06:04:28.553Z,19.2
2016-12-19T06:05:38.180Z,19.19
2016-12-19T06:06:48.118Z,19.19
2016-12-19T06:07:58.359Z,19.17
2016-12-19T06:09:08.295Z,19.2
2016-12-19T06:10:18.241Z,19.23
2016-12-19T06:11:28.225Z,19.16
2016-12-19T06:12:38.596Z,19.19
2016-12-19T06:13:48.882Z,19.17
2016-12-19T06:14:58.505Z,19.23
2016-12-19T06:16:08.448Z,19.19
2016-12-19T06:17:18.724Z,19.15
2016-12-19T06:18:28.355Z,19.17
2016-12-19T06:19:38.593Z,19.17
2016-12-19T06:20:48.535Z,19.15
2016-12-19T06:21:58.783Z,19.17
2016-12-19T06:23:08.428Z,19.2
2016-12-19T06:24:18.392Z,19.16
2016-12-19T06:25:28.655Z,19.16
2016-12-19T06:26:38.910Z,19.19
2016-12-19T06:27:48.837Z,19.19
2016-12-19T06:28:57.853Z,19.17
2016-12-19T06:30:08.100Z,19.15
2016-12-19T06:31:17.737Z,19.12
2016-12-19T06:32:28.010Z,19.17
2016-12-19T06:33:37.974Z,19.15
2016-12-19T06:34:47.922Z,19.15
2016-12-19T06:35:58.163Z,19.2
2016-12-19T06:37:07.811Z,19.17
2016-12-19T06:38:18.045Z,19.17
2016-12-19T06:39:28.004Z,19.2
2016-12-19T06:40:38.525Z,19.17
2016-12-19T06:41:48.522Z,19.2
2016-12-19T06:42:58.782Z,19.15
2016-12-19T06:44:09.022Z,19.15
2016-12-19T06:45:19.023Z,19.15
2016-12-19T06:46:29.262Z,19.16
2016-12-19T06:47:38.318Z,19.17
2016-12-19T06:48:48.255Z,19.17
2016-12-19T06:49:58.195Z,19.2
2016-12-19T06:51:07.513Z,19.17
2016-12-19T06:52:17.453Z,19.15
2016-12-19T06:53:27.085Z,19.17
2016-12-19T06:54:37.332Z,19.17
2016-12-19T06:55:46.961Z,19.22
2016-12-19T06:56:56.907Z,19.16
2016-12-19T06:58:06.852Z,19.15
2016-12-19T06:59:17.117Z,19.17
2016-12-19T07:00:27.367Z,19.15
2016-12-19T07:01:37.315Z,19.12
2016-12-19T07:02:47.564Z,19.16
2016-12-19T07:03:57.197Z,19.17
2016-12-19T07:05:06.528Z,19.12
2016-12-19T07:06:16.465Z,19.16
2016-12-19T07:07:26.097Z,19.16
2016-12-19T07:08:35.508Z,19.17
2016-12-19T07:09:45.531Z,19.15
2016-12-19T07:10:55.526Z,19.12
2016-12-19T07:12:05.801Z,19.12
2016-12-19T07:13:15.790Z,19.19
2016-12-19T07:14:25.114Z,19.15
2016-12-19T07:15:35.401Z,19.19
2016-12-19T07:16:45.673Z,19.17
2016-12-19T07:17:55.327Z,19.22
2016-12-19T07:19:05.600Z,19.19
2016-12-19T07:20:15.466Z,19.16
2016-12-19T07:21:25.704Z,19.19
2016-12-19T07:22:35.648Z,19.15
2016-12-19T07:23:45.278Z,19.2
2016-12-19T07:24:55.537Z,19.17
2016-12-19T07:26:04.924Z,19.15
2016-12-19T07:27:14.893Z,19.17
2016-12-19T07:28:24.529Z,19.19
2016-12-19T07:29:33.582Z,19.2
2016-12-19T07:30:43.283Z,19.17
2016-12-19T07:31:52.627Z,19.15
2016-12-19T07:33:02.934Z,19.23
2016-12-19T07:34:12.906Z,19.19
2016-12-19T07:35:23.163Z,19.2
2016-12-19T07:36:32.504Z,19.17
2016-12-19T07:37:42.190Z,19.16
2016-12-19T07:38:52.161Z,19.12
2016-12-19T07:40:02.452Z,19.19
2016-12-19T07:41:12.418Z,19.19
2016-12-19T07:42:22.690Z,19.17
2016-12-19T07:43:32.651Z,19.15
2016-12-19T07:44:42.923Z,19.23
2016-12-19T07:45:52.340Z,19.2
2016-12-19T07:47:02.611Z,19.23
2016-12-19T07:48:12.878Z,19.22
2016-12-19T07:49:23.134Z,19.26
2016-12-19T07:50:33.434Z,19.26
2016-12-19T07:51:43.482Z,19.19
2016-12-19T07:52:53.807Z,19.16
2016-12-19T07:54:04.064Z,19.17
2016-12-19T07:55:14.328Z,19.24
2016-12-19T07:56:24.686Z,19.26
2016-12-19T07:57:34.984Z,19.23
2016-12-19T07:58:44.355Z,19.2
2016-12-19T07:59:54.295Z,19.19
2016-12-19T08:01:04.256Z,19.2
2016-12-19T08:02:13.902Z,19.24
2016-12-19T08:03:24.220Z,19.17
2016-12-19T08:04:33.885Z,19.29
2016-12-19T08:05:43.822Z,19.19
2016-12-19T08:06:53.761Z,19.22
2016-12-19T08:08:04.020Z,19.24
2016-12-19T08:09:13.999Z,19.19
2016-12-19T08:10:23.953Z,19.17
2016-12-19T08:11:33.936Z,19.15
2016-12-19T08:12:44.187Z,19.17
2016-12-19T08:13:54.139Z,19.22
2016-12-19T08:15:03.743Z,19.22
2016-12-19T08:16:13.417Z,19.19
2016-12-19T08:17:23.070Z,19.23
2016-12-19T08:18:33.355Z,19.26
2016-12-19T08:19:43.329Z,19.2
2016-12-19T08:20:53.290Z,19.17
2016-12-19T08:22:03.277Z,19.24
2016-12-19T08:23:13.544Z,19.2
2016-12-19T08:24:23.852Z,19.23
2016-12-19T08:25:34.141Z,19.2
2016-12-19T08:26:44.410Z,19.29
2016-12-19T08:27:54.351Z,19.2
2016-12-19T08:29:04.319Z,19.23
2016-12-19T08:30:14.610Z,19.2
2016-12-19T08:31:24.567Z,19.23
2016-12-19T08:32:33.888Z,19.24
2016-12-19T08:33:43.826Z,19.24
2016-12-19T08:34:53.787Z,19.22
2016-12-19T08:36:03.741Z,19.24
2016-12-19T08:37:13.991Z,19.27
2016-12-19T08:38:23.662Z,19.29
2016-12-19T08:39:33.928Z,19.26
2016-12-19T08:40:44.213Z,19.23
2016-12-19T08:41:54.195Z,19.26
2016-12-19T08:43:04.165Z,19.26
2016-12-19T08:44:14.406Z,19.27
2016-12-19T08:45:24.683Z,19.27
2016-12-19T08:46:34.647Z,19.26
2016-12-19T08:47:44.637Z,19.22
2016-12-19T08:48:54.319Z,19.29
2016-12-19T08:50:04.597Z,19.27
2016-12-19T08:51:14.298Z,19.2
2016-12-19T08:52:24.611Z,19.22
2016-12-19T08:53:34.587Z,19.24
2016-12-19T08:54:44.870Z,19.3
2016-12-19T08:55:54.631Z,19.27
2016-12-19T08:57:04.890Z,19.23
2016-12-19T08:58:14.885Z,19.3
2016-12-19T08:59:25.154Z,19.27
2016-12-19T09:00:35.125Z,19.23
2016-12-19T09:01:45.118Z,19.23
2016-12-19T09:02:55.115Z,19.22
2016-12-19T09:04:05.070Z,19.22
2016-12-19T09:05:15.031Z,19.27
2016-12-19T09:06:25.306Z,19.26
2016-12-19T09:07:35.275Z,19.23
2016-12-19T09:08:45.227Z,19.26
2016-12-19T09:09:55.517Z,19.26
2016-12-19T09:11:05.828Z,19.24
2016-12-19T09:12:15.827Z,19.27
2016-12-19T09:13:25.466Z,19.29
2016-12-19T09:14:35.856Z,19.29
2016-12-19T09:15:46.194Z,19.34
2016-12-19T09:16:56.149Z,19.34
2016-12-19T09:18:05.488Z,19.3
2016-12-19T09:19:15.431Z,19.26
2016-12-19T09:20:25.702Z,19.27
2016-12-19T09:21:35.336Z,19.23
2016-12-19T09:22:44.958Z,19.29
2016-12-19T09:23:54.288Z,19.26
2016-12-19T09:25:04.574Z,19.29
2016-12-19T09:26:14.843Z,19.27
2016-12-19T09:27:24.794Z,19.23
2016-12-19T09:28:35.155Z,19.29
2016-12-19T09:29:45.411Z,19.26
2016-12-19T09:30:55.595Z,19.26
2016-12-19T09:32:05.557Z,19.29
2016-12-19T09:33:15.816Z,19.29
2016-12-19T09:34:26.070Z,19.26
2016-12-19T09:35:36.048Z,19.27
2016-12-19T09:36:46.003Z,19.29
2016-12-19T09:37:56.297Z,19.34
2016-12-19T09:39:06.312Z,19.26
2016-12-19T09:40:16.300Z,19.3
2016-12-19T09:41:26.589Z,19.3
2016-12-19T09:42:36.271Z,19.3
2016-12-19T09:43:46.614Z,19.3
2016-12-19T09:44:56.877Z,19.24
2016-12-19T09:46:07.154Z,19.29
2016-12-19T09:47:17.108Z,19.27
2016-12-19T09:48:27.071Z,19.23
2016-12-19T09:49:36.704Z,19.27
2016-12-19T09:50:46.641Z,19.3
2016-12-19T09:51:56.588Z,19.3
2016-12-19T09:53:06.529Z,19.32
2016-12-19T09:54:16.180Z,19.34
2016-12-19T09:55:26.445Z,19.3
2016-12-19T09:56:36.415Z,19.34
2016-12-19T09:57:46.341Z,19.3
2016-12-19T09:58:55.680Z,19.34
2016-12-19T10:00:05.606Z,19.34
2016-12-19T10:01:15.235Z,19.32
2016-12-19T10:02:25.174Z,19.34
2016-12-19T10:03:34.833Z,19.3
2016-12-19T10:04:44.490Z,19.29
2016-12-19T10:05:53.835Z,19.32
2016-12-19T10:07:02.880Z,19.3
2016-12-19T10:08:12.521Z,19.35
2016-12-19T10:09:22.232Z,19.27
2016-12-19T10:10:32.518Z,19.38
2016-12-19T10:11:42.159Z,19.3
2016-12-19T10:12:51.838Z,19.32
2016-12-19T10:14:02.092Z,19.32
2016-12-19T10:15:11.784Z,19.35
2016-12-19T10:16:21.716Z,19.38
2016-12-19T10:17:31.356Z,19.37
2016-12-19T10:18:41.314Z,19.37
2016-12-19T10:19:51.598Z,19.34
2016-12-19T10:21:01.540Z,19.38
2016-12-19T10:22:11.159Z,19.27
2016-12-19T10:23:21.106Z,19.32
2016-12-19T10:24:31.073Z,19.34
2016-12-19T10:25:40.746Z,19.37
2016-12-19T10:26:50.702Z,19.37
2016-12-19T10:28:00.363Z,19.34
2016-12-19T10:29:10.002Z,19.41
2016-12-19T10:30:19.960Z,19.35
2016-12-19T10:31:30.143Z,19.38
2016-12-19T10:32:39.483Z,19.39
2016-12-19T10:33:49.448Z,19.37
2016-12-19T10:34:59.418Z,19.37
2016-12-19T10:36:08.740Z,19.39
2016-12-19T10:37:19.030Z,19.38
2016-12-19T10:38:28.197Z,19.37
2016-12-19T10:39:38.476Z,19.35
2016-12-19T10:40:47.806Z,19.34
2016-12-19T10:41:57.776Z,19.37
2016-12-19T10:43:07.716Z,19.38
2016-12-19T10:44:17.678Z,19.41
2016-12-19T10:45:28.112Z,19.41
2016-12-19T10:46:38.512Z,19.38
2016-12-19T10:47:48.459Z,19.38
2016-12-19T10:48:58.422Z,19.37
2016-12-19T10:50:08.387Z,19.3
2016-12-19T10:51:18.642Z,19.42
2016-12-19T10:52:29.046Z,19.34
2016-12-19T10:53:39.013Z,19.38
2016-12-19T10:54:48.955Z,19.41
2016-12-19T10:55:58.956Z,19.39
2016-12-19T10:57:08.610Z,19.39
2016-12-19T10:58:18.861Z,19.38
2016-12-19T10:59:28.517Z,19.47
2016-12-19T11:00:38.462Z,19.38
2016-12-19T11:01:48.134Z,19.41
2016-12-19T11:02:58.820Z,19.45
2016-12-19T11:04:10.078Z,19.37
2016-12-19T11:05:20.348Z,19.42
2016-12-19T11:06:30.607Z,19.41
2016-12-19T11:07:40.238Z,19.44
2016-12-19T11:08:50.509Z,19.42
2016-12-19T11:10:00.160Z,19.47
2016-12-19T11:11:09.804Z,19.49
2016-12-19T11:12:20.304Z,19.41
2016-12-19T11:13:30.249Z,19.49
2016-12-19T11:14:40.496Z,19.48
2016-12-19T11:15:50.129Z,19.45
2016-12-19T11:16:59.820Z,19.52
2016-12-19T11:18:10.148Z,19.49
2016-12-19T11:19:19.872Z,19.48
2016-12-19T11:20:29.555Z,19.44
2016-12-19T11:21:39.536Z,19.45
2016-12-19T11:22:48.849Z,19.45
2016-12-19T11:23:58.472Z,19.45
2016-12-19T11:25:08.431Z,19.53
2016-12-19T11:26:18.181Z,19.45
2016-12-19T11:27:28.479Z,19.45
2016-12-19T11:28:38.744Z,19.52
2016-12-19T11:29:48.711Z,19.44
2016-12-19T11:30:59.078Z,19.39
2016-12-19T11:32:09.043Z,19.48
2016-12-19T11:33:18.704Z,19.48
2016-12-19T11:34:28.976Z,19.41
2016-12-19T11:35:39.242Z,19.47
2016-12-19T11:36:49.198Z,19.45
2016-12-19T11:37:59.466Z,19.52
2016-12-19T11:39:08.493Z,19.38
2016-12-19T11:40:18.442Z,19.48
2016-12-19T11:41:28.067Z,19.45
2016-12-19T11:42:38.008Z,19.44
2016-12-19T11:43:47.956Z,19.44
2016-12-19T11:44:57.593Z,19.45
2016-12-19T11:46:07.528Z,19.48
2016-12-19T11:47:17.699Z,19.45
2016-12-19T11:48:27.666Z,19.39
2016-12-19T11:49:37.609Z,19.41
2016-12-19T11:50:47.846Z,19.42
2016-12-19T11:51:58.093Z,19.48
2016-12-19T11:53:08.055Z,19.45
2016-12-19T11:54:18.600Z,19.44
2016-12-19T11:55:28.804Z,19.44
2016-12-19T11:56:38.752Z,19.42
2016-12-19T11:57:49.036Z,19.44
2016-12-19T11:58:59.271Z,19.45
2016-12-19T12:00:09.234Z,19.49
2016-12-19T12:01:18.874Z,19.41
2016-12-19T12:02:28.516Z,19.41
2016-12-19T12:03:38.677Z,19.49
2016-12-19T12:04:48.633Z,19.39
2016-12-19T12:05:58.261Z,19.48
2016-12-19T12:07:08.224Z,19.48
2016-12-19T12:08:18.471Z,19.42
2016-12-19T12:09:28.096Z,19.49
2016-12-19T12:10:38.048Z,19.53
2016-12-19T12:11:48.003Z,19.52
2016-12-19T12:12:57.636Z,19.44
2016-12-19T12:14:07.275Z,19.55
2016-12-19T12:15:17.226Z,19.52
2016-12-19T12:16:27.475Z,19.52
2016-12-19T12:17:37.105Z,19.52
2016-12-19T12:18:47.365Z,19.44
2016-12-19T12:19:57.033Z,19.55
2016-12-19T12:21:07.345Z,19.52
2016-12-19T12:22:17.971Z,19.56
2016-12-19T12:23:27.913Z,19.48
2016-12-19T12:24:37.859Z,19.56
2016-12-19T12:25:47.846Z,19.57
2016-12-19T12:26:57.515Z,19.49
2016-12-19T12:28:07.757Z,19.55
2016-12-19T12:29:18.019Z,19.45
2016-12-19T12:30:28.272Z,19.49
2016-12-19T12:31:38.538Z,19.41
2016-12-19T12:32:47.891Z,19.49
2016-12-19T12:33:57.828Z,19.53
2016-12-19T12:35:07.727Z,19.45
2016-12-19T12:36:17.678Z,19.53
2016-12-19T12:37:27.614Z,19.56
2016-12-19T12:38:37.895Z,19.57
2016-12-19T12:39:48.231Z,19.55
2016-12-19T12:40:58.596Z,19.53
2016-12-19T12:42:08.855Z,19.44
2016-12-19T12:43:19.104Z,19.55
2016-12-19T12:44:28.749Z,19.53
2016-12-19T12:45:38.695Z,19.53
2016-12-19T12:46:48.704Z,19.56
2016-12-19T12:47:58.950Z,19.55
2016-12-19T12:49:08.594Z,19.59
2016-12-19T12:50:18.853Z,19.53
2016-12-19T12:51:29.125Z,19.52
2016-12-19T12:52:39.129Z,19.53
2016-12-19T12:53:48.787Z,19.53
2016-12-19T12:54:58.406Z,19.53
2016-12-19T12:56:08.667Z,19.49
2016-12-19T12:57:18.914Z,19.62
2016-12-19T12:58:28.553Z,19.63
2016-12-19T12:59:37.569Z,19.67
2016-12-19T13:00:47.197Z,19.7
2016-12-19T13:01:57.448Z,19.72
2016-12-19T13:03:07.412Z,19.66
2016-12-19T13:04:17.101Z,19.64
2016-12-19T13:05:26.780Z,19.7
2016-12-19T13:06:36.734Z,19.84
2016-12-19T13:07:46.386Z,19.74
2016-12-19T13:08:56.352Z,19.82
2016-12-19T13:10:06.303Z,19.74
2016-12-19T13:11:16.563Z,19.79
2016-12-19T13:12:26.530Z,19.84
2016-12-19T13:13:36.779Z,19.81
2016-12-19T13:14:47.049Z,19.84
2016-12-19T13:15:56.677Z,19.81
2016-12-19T13:17:06.318Z,19.78
2016-12-19T13:18:16.548Z,19.82
2016-12-19T13:19:26.802Z,19.74
2016-12-19T13:20:36.776Z,19.82
2016-12-19T13:21:46.725Z,19.71
2016-12-19T13:22:56.965Z,19.74
2016-12-19T13:24:07.208Z,19.7
2016-12-19T13:25:17.447Z,19.71
2016-12-19T13:26:27.706Z,19.77
2016-12-19T13:27:37.346Z,19.75
2016-12-19T13:28:47.290Z,19.79
2016-12-19T13:29:56.918Z,19.71
2016-12-19T13:31:06.880Z,19.81
2016-12-19T13:32:16.843Z,19.85
2016-12-19T13:33:26.190Z,19.78
2016-12-19T13:34:36.449Z,19.81
2016-12-19T13:35:46.679Z,19.89
2016-12-19T13:36:56.930Z,19.87
2016-12-19T13:38:06.563Z,19.85
2016-12-19T13:39:16.236Z,19.82
2016-12-19T13:40:25.881Z,19.75
2016-12-19T13:41:34.887Z,19.84
2016-12-19T13:42:44.831Z,19.79
2016-12-19T13:43:55.082Z,19.81
2016-12-19T13:45:05.024Z,19.84
2016-12-19T13:46:14.659Z,19.85
2016-12-19T13:47:24.602Z,19.89
2016-12-19T13:48:34.237Z,19.87
2016-12-19T13:49:43.889Z,19.89
2016-12-19T13:50:54.132Z,19.85
2016-12-19T13:52:04.067Z,19.85
2016-12-19T13:53:13.428Z,19.89
2016-12-19T13:54:23.687Z,19.82
2016-12-19T13:55:33.308Z,19.84
2016-12-19T13:56:42.675Z,19.9
2016-12-19T13:57:52.633Z,19.89
2016-12-19T13:59:02.569Z,19.89
2016-12-19T14:00:12.554Z,19.87
2016-12-19T14:01:22.525Z,19.94
2016-12-19T14:02:32.154Z,19.85
2016-12-19T14:03:41.785Z,19.9
2016-12-19T14:04:51.431Z,19.82
2016-12-19T14:06:00.764Z,19.87
2016-12-19T14:07:10.708Z,19.85
2016-12-19T14:08:20.979Z,19.99
2016-12-19T14:09:31.229Z,19.97
2016-12-19T14:10:40.860Z,19.97
2016-12-19T14:11:51.107Z,20.03
2016-12-19T14:13:01.089Z,19.96
2016-12-19T14:14:11.353Z,19.99
2016-12-19T14:15:21.288Z,19.94
2016-12-19T14:16:31.571Z,19.93
2016-12-19T14:17:41.826Z,19.94
2016-12-19T14:18:51.785Z,19.94
2016-12-19T14:20:01.404Z,19.9
2016-12-19T14:21:11.661Z,19.96
2016-12-19T14:22:21.612Z,19.87
2016-12-19T14:23:31.871Z,19.94
2016-12-19T14:24:41.516Z,19.9
2016-12-19T14:25:51.784Z,19.96
2016-12-19T14:27:01.720Z,19.89
2016-12-19T14:28:11.349Z,19.87
2016-12-19T14:29:21.305Z,19.87
2016-12-19T14:30:31.569Z,19.9
2016-12-19T14:31:41.532Z,19.87
2016-12-19T14:32:50.858Z,19.87
2016-12-19T14:34:01.135Z,19.99
2016-12-19T14:35:11.129Z,19.93
2016-12-19T14:36:44.649Z,19.94
2016-12-19T14:37:54.892Z,19.94
2016-12-19T14:39:04.529Z,20
2016-12-19T14:40:13.842Z,19.87
2016-12-19T14:41:24.108Z,19.89
2016-12-19T14:42:34.047Z,19.93
2016-12-19T14:43:44.288Z,19.9
2016-12-19T14:44:54.540Z,19.93
2016-12-19T14:46:04.495Z,19.92
2016-12-19T14:47:13.806Z,19.85
2016-12-19T14:48:24.091Z,19.93
2016-12-19T14:49:34.061Z,19.84
2016-12-19T14:50:43.696Z,19.85
2016-12-19T14:51:53.652Z,19.87
2016-12-19T14:53:03.900Z,19.89
2016-12-19T14:54:13.848Z,19.85
2016-12-19T14:55:24.104Z,19.87
2016-12-19T14:56:33.760Z,19.87
2016-12-19T14:57:43.115Z,19.87
2016-12-19T14:58:52.754Z,19.85
2016-12-19T15:00:02.699Z,19.84
2016-12-19T15:01:11.704Z,19.82
2016-12-19T15:02:21.665Z,19.87
2016-12-19T15:03:30.990Z,19.85
2016-12-19T15:04:40.950Z,19.82